Time;durP1;ratioP1;P1;durP2;ratioP2;P2;SDS_P1;SDS_P2;PMS_P1;PMS_P2;Temp;Humidity;BMP_temperature;BMP_pressure;BME280_temperature;BME280_humidity;BME280_pressure;Samples;Min_cycle;Max_cycle;Signal;HPM_P1;HPM_P2
2022/04/13 00:00:01;;;;;;;6.72;3.00;;;13.80;99.90;;;;;;6223654;23;20023;-94
2022/04/13 00:05:58;;;;;;;9.52;2.97;;;13.60;99.90;;;;;;6204053;23;20071;-95
2022/04/13 00:08:57;;;;;;;;;;;;;;;;;;;;;
2022/04/13 00:11:54;;;;;;;4.90;2.78;;;13.50;99.90;;;;;;6211015;23;20119;-95
2022/04/13 00:14:42;;;;;;;;;;;;;;;;;;;;;
2022/04/13 00:17:49;;;;;;;4.00;3.08;;;12.70;99.90;;;;;;6220401;23;20396;-96
2022/04/13 00:20:48;;;;;;;;;;;;;;;;;;;;;
2022/04/13 00:26:30;;;;;;;6.53;4.10;;;13.20;99.90;;;;;;6181233;23;20490;-95
2022/04/13 00:29:32;;;;;;;8.10;3.38;;;13.30;99.90;;;;;;6174962;23;20031;-95
2022/04/13 00:32:04;;;;;;;6.55;3.28;;;13.10;99.90;;;;;;6179680;23;20019;-94
2022/04/13 00:35:04;;;;;;;;;;;;;;;;;;;;;
2022/04/13 00:37:51;;;;;;;4.70;3.22;;;12.90;99.90;;;;;;6199402;23;20170;-95
2022/04/13 00:40:45;;;;;;;4.25;3.65;;;12.70;99.90;;;;;;6174231;23;20027;-95
2022/04/13 00:43:36;;;;;;;3.67;2.97;;;12.60;99.90;;;;;;6177149;23;20048;-95
2022/04/13 00:46:07;;;;;;;6.15;3.50;;;12.90;99.90;;;;;;6198202;23;20016;-95
2022/04/13 00:48:59;;;;;;;;;;;;;;;;;;;;;
2022/04/13 00:51:38;;;;;;;4.65;3.05;;;11.60;99.90;;;;;;6221323;23;20066;-96
2022/04/13 00:54:23;;;;;;;;;;;;;;;;;;;;;
2022/04/13 01:00:14;;;;;;;6.22;3.25;;;11.90;99.90;;;;;;6199971;23;20074;-95
2022/04/13 01:02:52;;;;;;;6.60;3.47;;;12.30;99.90;;;;;;6189054;23;20020;-95
2022/04/13 01:05:39;;;;;;;;;;;;;;;;;;;;;
2022/04/13 01:08:28;;;;;;;4.85;3.72;;;12.70;99.90;;;;;;6222638;23;20023;-96
2022/04/13 01:11:28;;;;;;;;;;;;;;;;;;;;;
2022/04/13 01:14:08;;;;;;;4.43;3.10;;;11.90;99.90;;;;;;6220283;23;20055;-95
2022/04/13 01:17:15;;;;;;;8.57;3.10;;;12.10;99.90;;;;;;6195578;23;20024;-95
2022/04/13 01:20:22;;;;;;;;;;;;;;;;;;;;;
2022/04/13 01:23:07;;;;;;;10.43;4.00;;;12.10;99.90;;;;;;6220272;23;20042;-94
2022/04/13 01:26:11;;;;;;;3.58;3.25;;;12.10;99.90;;;;;;6199730;23;20023;-95
2022/04/13 01:29:21;;;;;;;;;;;;;;;;;;;;;
2022/04/13 01:39:06;;;;;;;;;;;;;;;;;;;;;
2022/04/13 01:42:20;;;;;;;6.22;3.63;;;12.20;99.90;;;;;;6222151;23;20063;-94
2022/04/13 01:45:19;;;;;;;3.83;3.25;;;12.30;99.90;;;;;;6141872;23;20020;-94
2022/04/13 01:48:21;;;;;;;;;;;;;;;;;;;;;
2022/04/13 01:51:20;;;;;;;;;;;;;;;;;;;;;
2022/04/13 01:54:19;;;;;;;;;;;;;;;;;;;;;
2022/04/13 01:57:24;;;;;;;5.55;3.97;;;12.20;99.90;;;;;;6200700;23;20047;-95
2022/04/13 02:00:16;;;;;;;6.95;4.28;;;12.10;99.90;;;;;;6175653;23;20095;-96
2022/04/13 02:02:42;;;;;;;5.43;4.03;;;12.70;99.90;;;;;;6173637;23;20550;-90
2022/04/13 02:05:09;;;;;;;5.63;4.10;;;12.10;99.90;;;;;;6196033;23;20048;-90
2022/04/13 02:07:39;;;;;;;3.97;3.58;;;12.30;99.90;;;;;;6221101;23;20024;-90
2022/04/13 02:10:05;;;;;;;5.18;3.70;;;12.10;99.90;;;;;;6196186;23;20016;-89
2022/04/13 02:12:34;;;;;;;5.47;3.47;;;12.10;99.90;;;;;;6196503;23;20110;-90
2022/04/13 02:14:59;;;;;;;6.28;4.22;;;11.90;99.90;;;;;;6222092;23;20016;-90
2022/04/13 02:17:25;;;;;;;8.33;3.27;;;11.80;99.90;;;;;;6196400;23;20023;-90
2022/04/13 02:19:51;;;;;;;4.43;3.53;;;11.80;99.90;;;;;;6195929;23;20344;-90
2022/04/13 02:22:17;;;;;;;6.70;3.97;;;11.80;99.90;;;;;;6171225;23;20020;-90
2022/04/13 02:24:43;;;;;;;4.82;3.60;;;11.70;99.90;;;;;;6220705;23;20017;-90
2022/04/13 02:27:09;;;;;;;7.57;3.97;;;11.60;99.90;;;;;;6222669;23;20397;-90
2022/04/13 02:29:36;;;;;;;7.30;3.75;;;11.70;99.90;;;;;;6196726;23;20745;-90
2022/04/13 02:32:03;;;;;;;6.65;3.40;;;11.60;99.90;;;;;;6222338;23;20012;-90
2022/04/13 02:34:37;;;;;;;4.85;4.20;;;11.70;99.90;;;;;;6171812;23;20082;-90
2022/04/13 02:37:06;;;;;;;5.22;4.72;;;11.60;99.90;;;;;;6221155;23;20440;-90
2022/04/13 02:39:31;;;;;;;6.05;4.70;;;11.70;99.90;;;;;;6208619;23;20024;-90
2022/04/13 02:42:00;;;;;;;5.50;4.07;;;12.50;99.90;;;;;;6165537;23;20013;-90
2022/04/13 02:44:26;;;;;;;7.97;4.30;;;11.70;99.90;;;;;;6192563;23;20099;-93
2022/04/13 02:46:56;;;;;;;8.87;4.23;;;11.70;99.90;;;;;;6168064;23;20062;-89
2022/04/13 02:49:24;;;;;;;5.03;4.00;;;11.40;99.90;;;;;;6193351;23;20016;-89
2022/04/13 02:51:50;;;;;;;5.78;4.35;;;11.00;99.90;;;;;;6168905;23;20108;-90
2022/04/13 02:54:23;;;;;;;5.63;3.93;;;11.90;99.90;;;;;;6168635;23;20024;-90
2022/04/13 02:57:07;;;;;;;8.15;4.40;;;11.70;99.90;;;;;;6169158;23;20015;-90
2022/04/13 02:59:35;;;;;;;7.72;4.00;;;11.70;99.90;;;;;;6192969;23;20104;-89
2022/04/13 03:02:01;;;;;;;6.15;4.03;;;11.60;99.90;;;;;;6142643;23;20021;-89
2022/04/13 03:04:28;;;;;;;8.13;4.57;;;11.70;99.90;;;;;;6166139;23;20017;-90
2022/04/13 03:06:54;;;;;;;7.80;5.15;;;11.60;99.90;;;;;;6142813;23;20337;-90
2022/04/13 03:09:19;;;;;;;8.27;4.87;;;11.70;99.90;;;;;;6141922;23;20016;-90
2022/04/13 03:11:45;;;;;;;6.73;4.27;;;11.70;99.90;;;;;;6142183;23;20091;-90
2022/04/13 03:14:11;;;;;;;5.20;4.40;;;11.60;99.90;;;;;;6166548;23;20027;-90
2022/04/13 03:16:37;;;;;;;8.63;4.47;;;11.60;99.90;;;;;;6192053;23;20016;-90
2022/04/13 03:19:02;;;;;;;9.40;5.13;;;11.60;99.90;;;;;;6168068;23;20013;-90
2022/04/13 03:21:28;;;;;;;6.87;4.73;;;11.60;99.90;;;;;;6193162;23;20024;-89
2022/04/13 03:23:56;;;;;;;6.00;5.13;;;11.50;99.90;;;;;;6143305;23;20024;-90
2022/04/13 03:26:22;;;;;;;8.75;4.65;;;11.50;99.90;;;;;;6167405;23;20499;-90
2022/04/13 03:28:48;;;;;;;6.13;4.43;;;11.50;99.90;;;;;;6191407;23;20209;-90
2022/04/13 03:31:16;;;;;;;6.77;4.50;;;11.40;99.90;;;;;;6167545;23;20016;-90
2022/04/13 03:33:42;;;;;;;8.82;4.60;;;11.50;99.90;;;;;;6168670;23;20092;-90
2022/04/13 03:36:09;;;;;;;11.00;5.50;;;11.50;99.90;;;;;;6167353;23;20021;-90
2022/04/13 03:38:43;;;;;;;8.65;4.88;;;11.60;99.90;;;;;;6167067;23;20021;-92
2022/04/13 03:41:09;;;;;;;7.22;5.32;;;11.50;99.90;;;;;;6221810;23;20067;-91
2022/04/13 03:43:34;;;;;;;6.43;5.00;;;11.50;99.90;;;;;;6197377;23;20034;-92
2022/04/13 03:46:03;;;;;;;8.20;5.63;;;11.50;99.90;;;;;;6221398;23;20390;-90
2022/04/13 03:48:32;;;;;;;10.57;5.88;;;11.50;99.90;;;;;;6195906;23;20057;-90
2022/04/13 03:50:58;;;;;;;6.78;5.30;;;11.50;99.90;;;;;;6197490;23;20020;-90
2022/04/13 03:53:26;;;;;;;6.97;5.27;;;10.70;99.90;;;;;;6222004;23;20020;-90
2022/04/13 03:55:51;;;;;;;7.30;4.85;;;11.50;99.90;;;;;;6196643;23;20020;-90
2022/04/13 03:58:20;;;;;;;9.83;5.33;;;11.60;99.90;;;;;;6222752;23;20091;-90
2022/04/13 04:00:48;;;;;;;9.68;5.70;;;11.60;99.90;;;;;;6196884;23;20058;-90
2022/04/13 04:03:14;;;;;;;14.27;6.07;;;11.60;99.90;;;;;;6196498;23;20013;-90
2022/04/13 04:05:42;;;;;;;10.47;6.00;;;11.50;99.90;;;;;;6195687;23;20027;-91
2022/04/13 04:08:08;;;;;;;7.85;5.53;;;10.60;99.90;;;;;;6195534;23;20027;-90
2022/04/13 04:10:36;;;;;;;10.93;5.53;;;11.60;99.90;;;;;;6196780;23;20016;-89
2022/04/13 04:13:02;;;;;;;6.03;5.30;;;11.50;99.90;;;;;;6197107;23;20019;-90
2022/04/13 04:15:28;;;;;;;11.97;5.87;;;11.60;99.90;;;;;;6197409;23;20017;-90
2022/04/13 04:17:56;;;;;;;6.93;5.17;;;11.60;99.90;;;;;;6196329;23;20016;-90
2022/04/13 04:20:21;;;;;;;8.70;6.07;;;11.60;99.90;;;;;;6222230;23;20012;-90
2022/04/13 04:22:47;;;;;;;8.63;5.73;;;11.50;99.90;;;;;;6222272;23;20442;-90
2022/04/13 04:25:16;;;;;;;9.52;5.50;;;11.40;99.90;;;;;;6197716;23;20022;-90
2022/04/13 04:27:44;;;;;;;15.10;5.15;;;11.20;99.90;;;;;;6196666;23;20016;-90
2022/04/13 04:30:11;;;;;;;10.13;5.60;;;11.50;99.90;;;;;;6197185;23;20023;-89
2022/04/13 04:32:37;;;;;;;7.95;5.55;;;11.40;99.90;;;;;;6221508;23;20016;-90
2022/04/13 04:35:07;;;;;;;8.30;6.00;;;11.50;99.90;;;;;;6196514;23;20023;-89
2022/04/13 04:37:33;;;;;;;8.40;5.10;;;11.40;99.90;;;;;;6198153;23;20098;-90
2022/04/13 04:39:58;;;;;;;10.13;5.87;;;11.30;99.90;;;;;;6203899;23;20028;-90
2022/04/13 04:42:27;;;;;;;8.17;5.43;;;11.40;99.90;;;;;;6192253;23;20016;-89
2022/04/13 04:44:59;;;;;;;7.75;5.57;;;11.30;99.90;;;;;;6190516;23;20349;-90
2022/04/13 04:47:26;;;;;;;8.93;5.18;;;11.30;99.90;;;;;;6166418;23;20016;-90
2022/04/13 04:49:52;;;;;;;10.40;5.07;;;11.20;99.90;;;;;;6167277;23;20017;-90
2022/04/13 04:52:18;;;;;;;10.80;6.30;;;11.10;99.90;;;;;;6165931;23;20071;-90
2022/04/13 04:54:46;;;;;;;9.80;5.33;;;11.20;99.90;;;;;;6191518;23;20008;-93
2022/04/13 04:57:11;;;;;;;10.43;5.93;;;11.20;99.90;;;;;;6143278;23;20108;-90
2022/04/13 04:59:40;;;;;;;8.93;5.63;;;11.20;99.90;;;;;;6191901;23;20024;-91
2022/04/13 05:02:06;;;;;;;9.75;5.80;;;11.20;99.90;;;;;;6141522;23;20059;-90
2022/04/13 05:04:35;;;;;;;15.30;6.00;;;10.80;99.90;;;;;;6192910;23;20013;-90
2022/04/13 05:07:03;;;;;;;9.55;5.25;;;10.90;99.90;;;;;;6166209;23;20020;-90
2022/04/13 05:09:28;;;;;;;10.30;5.72;;;10.30;99.90;;;;;;6166998;23;20052;-90
2022/04/13 05:11:54;;;;;;;10.10;6.03;;;10.40;99.90;;;;;;6191389;23;20019;-90
2022/04/13 05:14:20;;;;;;;7.83;5.73;;;11.20;99.90;;;;;;6191399;23;20082;-90
2022/04/13 05:16:46;;;;;;;12.10;6.18;;;11.20;99.90;;;;;;6141140;23;20095;-93
2022/04/13 05:19:15;;;;;;;8.50;6.57;;;11.30;99.90;;;;;;6167765;23;20020;-90
2022/04/13 05:21:41;;;;;;;14.43;6.88;;;11.20;99.90;;;;;;6167652;23;20243;-90
2022/04/13 05:24:07;;;;;;;12.30;5.63;;;11.30;99.90;;;;;;6191705;23;20016;-90
2022/04/13 05:26:32;;;;;;;10.85;6.93;;;11.30;99.90;;;;;;6166749;23;20055;-90
2022/04/13 05:28:58;;;;;;;13.00;6.57;;;11.30;99.90;;;;;;6166468;23;20027;-91
2022/04/13 05:31:26;;;;;;;9.23;6.33;;;11.40;99.90;;;;;;6143084;23;20024;-90
2022/04/13 05:33:52;;;;;;;8.77;5.75;;;11.30;99.90;;;;;;6192029;23;20078;-90
2022/04/13 05:36:20;;;;;;;7.70;6.27;;;11.40;99.90;;;;;;6167819;23;20460;-90
2022/04/13 05:38:46;;;;;;;8.00;6.05;;;11.50;99.90;;;;;;6194727;23;20337;-89
2022/04/13 05:41:17;;;;;;;8.40;6.10;;;11.50;99.90;;;;;;6220977;23;20020;-90
2022/04/13 05:43:45;;;;;;;7.53;5.93;;;11.50;99.90;;;;;;6171461;23;20067;-89
2022/04/13 05:46:11;;;;;;;8.13;6.13;;;11.70;99.90;;;;;;6220211;23;20091;-90
2022/04/13 05:48:39;;;;;;;13.13;6.10;;;11.80;99.90;;;;;;6196037;23;20082;-90
2022/04/13 05:51:09;;;;;;;10.98;6.75;;;10.50;99.90;;;;;;6197224;23;20016;-87
2022/04/13 05:53:36;;;;;;;11.02;6.50;;;11.70;99.90;;;;;;6222013;23;20514;-87
2022/04/13 05:56:02;;;;;;;9.80;6.05;;;11.70;99.90;;;;;;6196667;23;20468;-87
2022/04/13 05:58:30;;;;;;;11.02;7.93;;;11.70;99.90;;;;;;6196718;23;20483;-89
2022/04/13 06:00:56;;;;;;;12.40;6.18;;;11.80;99.90;;;;;;6171099;23;20024;-88
2022/04/13 06:03:23;;;;;;;9.40;6.35;;;11.70;99.90;;;;;;6196358;23;20016;-86
2022/04/13 06:05:54;;;;;;;8.73;6.28;;;11.70;99.90;;;;;;6221577;23;20024;-87
2022/04/13 06:08:20;;;;;;;11.32;6.93;;;11.70;99.90;;;;;;6194475;23;20008;-87
2022/04/13 06:10:46;;;;;;;10.17;7.33;;;11.80;99.90;;;;;;6223508;23;20521;-86
2022/04/13 06:13:12;;;;;;;11.13;8.30;;;11.80;99.90;;;;;;6195494;23;20044;-87
2022/04/13 06:15:38;;;;;;;9.17;6.20;;;10.70;99.90;;;;;;6195904;23;20039;-87
2022/04/13 06:18:11;;;;;;;9.90;6.53;;;11.90;99.90;;;;;;6197895;23;20016;-87
2022/04/13 06:20:39;;;;;;;11.18;7.95;;;11.90;99.90;;;;;;6198595;23;20023;-87
2022/04/13 06:23:05;;;;;;;9.50;7.07;;;12.10;99.90;;;;;;6224160;23;20023;-86
2022/04/13 06:25:31;;;;;;;15.30;7.27;;;12.30;99.90;;;;;;6197602;23;20009;-89
2022/04/13 06:27:56;;;;;;;10.07;7.32;;;13.70;99.90;;;;;;6222543;23;20340;-90
2022/04/13 06:30:25;;;;;;;8.10;7.27;;;12.50;99.90;;;;;;6197233;23;20103;-88
2022/04/13 06:32:50;;;;;;;10.15;7.63;;;13.10;99.90;;;;;;6220914;23;20008;-85
2022/04/13 06:35:17;;;;;;;16.67;8.20;;;13.20;99.90;;;;;;6197799;23;20070;-84
2022/04/13 06:37:45;;;;;;;13.13;8.98;;;13.40;99.90;;;;;;6220500;23;20056;-83
2022/04/13 06:40:11;;;;;;;12.05;6.38;;;13.50;99.90;;;;;;6219710;23;20445;-83
2022/04/13 06:42:38;;;;;;;;;;;13.70;99.90;;;;;;6171137;23;20078;-84
2022/04/13 06:45:10;;;;;;;10.32;6.82;;;13.90;99.90;;;;;;6194145;23;20320;-83
2022/04/13 06:47:36;;;;;;;11.95;7.55;;;14.00;99.90;;;;;;6194989;23;20020;-84
2022/04/13 06:50:02;;;;;;;;;;;14.00;99.90;;;;;;6220636;23;20019;-87
2022/04/13 06:52:32;;;;;;;13.40;7.13;;;14.00;99.90;;;;;;6195679;23;19930;-84
2022/04/13 06:54:59;;;;;;;8.70;7.07;;;14.00;99.90;;;;;;6220232;23;20016;-86
2022/04/13 06:57:27;;;;;;;13.80;7.57;;;13.90;99.90;;;;;;6197507;23;20087;-87
2022/04/13 06:59:53;;;;;;;15.93;7.90;;;13.90;99.90;;;;;;6171793;23;20035;-85
2022/04/13 07:02:18;;;;;;;13.80;7.13;;;13.90;99.90;;;;;;6219877;23;20026;-86
2022/04/13 07:04:44;;;;;;;14.03;7.40;;;13.90;99.90;;;;;;6221462;23;20289;-87
2022/04/13 07:07:10;;;;;;;11.93;7.67;;;13.90;99.90;;;;;;6220687;23;20020;-87
2022/04/13 07:09:36;;;;;;;10.97;7.47;;;13.90;99.90;;;;;;6196194;23;20016;-86
2022/04/13 07:12:02;;;;;;;10.50;7.37;;;14.10;99.90;;;;;;6196073;23;20008;-88
2022/04/13 07:14:27;;;;;;;16.63;6.88;;;14.30;99.90;;;;;;6196871;23;20341;-87
2022/04/13 07:16:53;;;;;;;13.43;7.90;;;14.60;99.90;;;;;;6220474;23;20019;-87
2022/04/13 07:19:19;;;;;;;10.77;6.70;;;15.00;99.90;;;;;;6194647;23;20016;-89
2022/04/13 07:21:44;;;;;;;12.07;6.73;;;15.30;99.90;;;;;;6195869;23;20396;-85
2022/04/13 07:24:13;;;;;;;12.68;6.55;;;15.50;99.90;;;;;;6170552;23;20239;-81
2022/04/13 07:26:41;;;;;;;12.45;7.00;;;15.80;99.90;;;;;;6196918;23;20070;-82
2022/04/13 07:29:07;;;;;;;8.40;6.43;;;16.10;99.90;;;;;;6169002;23;20016;-83
2022/04/13 07:31:33;;;;;;;9.40;6.25;;;16.30;99.90;;;;;;6220369;23;20019;-82
2022/04/13 07:33:58;;;;;;;8.43;5.28;;;16.60;99.90;;;;;;6194822;23;20431;-82
2022/04/13 07:36:24;;;;;;;9.40;5.93;;;16.70;99.90;;;;;;6219535;23;20014;-82
2022/04/13 07:38:50;;;;;;;9.07;5.93;;;16.80;99.90;;;;;;6194281;23;20017;-82
2022/04/13 07:41:16;;;;;;;9.10;5.55;;;17.00;99.90;;;;;;6219531;23;20022;-82
2022/04/13 07:43:43;;;;;;;5.75;4.63;;;17.20;99.90;;;;;;6194740;23;20099;-81
2022/04/13 07:46:10;;;;;;;6.80;4.50;;;17.20;99.90;;;;;;6219523;23;20005;-82
2022/04/13 07:48:35;;;;;;;10.13;5.28;;;17.10;99.90;;;;;;6220612;23;20019;-84
2022/04/13 07:51:01;;;;;;;6.80;4.82;;;16.80;99.90;;;;;;6195442;23;20412;-84
2022/04/13 07:53:27;;;;;;;7.00;5.47;;;16.60;99.90;;;;;;6169544;23;20367;-85
2022/04/13 07:55:52;;;;;;;9.30;4.77;;;16.30;99.90;;;;;;6195451;23;20239;-86
2022/04/13 07:58:18;;;;;;;8.00;4.43;;;16.10;99.90;;;;;;6171838;23;20024;-86
2022/04/13 08:00:44;;;;;;;8.25;5.00;;;15.90;99.90;;;;;;6221744;23;20012;-87
2022/04/13 08:03:09;;;;;;;12.37;5.83;;;15.70;99.90;;;;;;6221253;23;20053;-87
2022/04/13 08:05:35;;;;;;;8.37;5.13;;;15.70;99.90;;;;;;6195770;23;20248;-87
2022/04/13 08:08:01;;;;;;;6.00;4.43;;;15.60;99.90;;;;;;6201551;23;20012;-85
2022/04/13 08:10:26;;;;;;;7.13;5.10;;;15.50;99.90;;;;;;6177426;23;20074;-90
2022/04/13 08:12:52;;;;;;;10.20;4.90;;;15.40;99.90;;;;;;6173048;23;20069;-88
2022/04/13 08:15:20;;;;;;;7.00;4.37;;;15.30;99.90;;;;;;6221785;23;20008;-88
2022/04/13 08:17:46;;;;;;;6.28;4.50;;;15.20;99.90;;;;;;6196197;23;20023;-87
2022/04/13 08:20:13;;;;;;;9.57;5.47;;;15.30;99.90;;;;;;6170044;23;20320;-87
2022/04/13 08:22:41;;;;;;;9.07;4.78;;;15.30;99.90;;;;;;6171336;23;20452;-87
2022/04/13 08:25:07;;;;;;;6.03;3.67;;;15.40;99.90;;;;;;6221656;23;20012;-88
2022/04/13 08:27:33;;;;;;;;;;;15.50;99.90;;;;;;6197090;23;20023;-84
2022/04/13 08:29:59;;;;;;;7.55;3.92;;;15.60;99.90;;;;;;6224748;23;19911;-88
2022/04/13 08:32:25;;;;;;;5.47;3.88;;;15.60;99.90;;;;;;6219324;23;20012;-87
2022/04/13 08:34:54;;;;;;;6.60;3.65;;;15.70;99.90;;;;;;6221128;23;20047;-86
2022/04/13 08:37:21;;;;;;;6.80;4.90;;;15.80;99.90;;;;;;6220810;23;20015;-86
2022/04/13 08:39:47;;;;;;;8.40;4.53;;;15.90;99.90;;;;;;6220889;23;20018;-86
2022/04/13 08:42:46;;;;;;;8.93;4.15;;;16.00;99.90;;;;;;6195478;23;20020;-86
2022/04/13 08:45:32;;;;;;;5.35;4.70;;;16.20;99.90;;;;;;6195745;23;20367;-86
2022/04/13 08:47:59;;;;;;;6.22;4.80;;;16.60;99.90;;;;;;6219576;23;20324;-87
2022/04/13 08:50:32;;;;;;;11.60;3.92;;;16.90;99.90;;;;;;6219936;23;20320;-88
2022/04/13 08:53:07;;;;;;;9.73;3.53;;;17.20;99.90;;;;;;6220384;23;20424;-91
2022/04/13 08:55:33;;;;;;;6.25;4.68;;;17.50;99.90;;;;;;6219952;23;20452;-91
2022/04/13 08:58:37;;;;;;;5.25;4.43;;;17.70;99.90;;;;;;6170745;23;20012;-90
2022/04/13 09:01:10;;;;;;;4.70;3.45;;;17.90;99.90;;;;;;6219360;23;20047;-89
2022/04/13 09:03:52;;;;;;;3.08;2.70;;;18.10;99.90;;;;;;6194989;23;20023;-88
2022/04/13 09:06:21;;;;;;;3.92;3.05;;;18.10;99.90;;;;;;6220448;23;20298;-90
2022/04/13 09:08:56;;;;;;;4.72;2.88;;;17.20;99.90;;;;;;6195573;23;20019;-91
2022/04/13 09:11:36;;;;;;;6.18;3.25;;;18.20;99.90;;;;;;6196891;23;20301;-92
2022/04/13 09:14:05;;;;;;;4.22;2.60;;;18.10;99.90;;;;;;6197464;23;20047;-91
2022/04/13 09:16:35;;;;;;;3.50;3.20;;;18.10;99.90;;;;;;6195303;23;20019;-91
2022/04/13 09:19:04;;;;;;;5.70;3.05;;;18.40;99.90;;;;;;6195413;23;20047;-91
2022/04/13 09:21:32;;;;;;;7.35;3.33;;;18.50;99.90;;;;;;6194385;23;20042;-93
2022/04/13 09:24:07;;;;;;;4.40;2.72;;;18.60;99.90;;;;;;6196497;23;20054;-90
2022/04/13 09:26:51;;;;;;;7.28;2.90;;;18.80;99.90;;;;;;6195680;23;20448;-91
2022/04/13 09:29:22;;;;;;;4.68;2.80;;;18.70;99.90;;;;;;6219530;23;20035;-92
2022/04/13 09:31:58;;;;;;;;;;;;;;;;;;;;;
2022/04/13 09:34:32;;;;;;;5.25;3.45;;;19.10;99.90;;;;;;6220781;23;20011;-90
2022/04/13 09:36:58;;;;;;;5.07;3.53;;;19.40;99.90;;;;;;6196707;23;20502;-88
2022/04/13 09:39:25;;;;;;;5.40;3.33;;;19.40;99.90;;;;;;6197727;23;20041;-89
2022/04/13 09:41:51;;;;;;;9.60;3.20;;;19.60;99.90;;;;;;6220400;23;20420;-87
2022/04/13 09:44:19;;;;;;;4.55;3.05;;;19.70;99.90;;;;;;6194344;23;20048;-87
2022/04/13 09:46:53;;;;;;;8.27;3.30;;;19.90;99.90;;;;;;6194243;23;20023;-86
2022/04/13 09:49:22;;;;;;;5.07;3.03;;;20.00;99.90;;;;;;6220086;23;20399;-88
2022/04/13 09:51:50;;;;;;;6.15;4.53;;;20.20;99.90;;;;;;6219832;23;20012;-88
2022/04/13 09:54:17;;;;;;;7.78;3.90;;;20.40;99.90;;;;;;6220360;23;20016;-88
2022/04/13 09:56:48;;;;;;;5.90;4.03;;;20.30;99.90;;;;;;6170866;23;20008;-89
2022/04/13 09:59:31;;;;;;;5.65;3.47;;;20.30;99.90;;;;;;6220373;23;20031;-87
2022/04/13 10:01:58;;;;;;;5.78;4.18;;;20.40;99.90;;;;;;6194413;23;20016;-86
2022/04/13 10:04:29;;;;;;;5.25;3.22;;;20.30;99.90;;;;;;6218959;23;20020;-88
2022/04/13 10:07:16;;;;;;;4.88;3.47;;;20.40;99.90;;;;;;6169607;23;20024;-86
2022/04/13 10:09:42;;;;;;;4.32;3.15;;;20.30;99.90;;;;;;6219188;23;20532;-87
2022/04/13 10:12:09;;;;;;;5.75;4.13;;;20.30;99.90;;;;;;6169140;23;20090;-87
2022/04/13 10:14:35;;;;;;;5.30;3.55;;;20.40;99.90;;;;;;6219040;23;20341;-88
2022/04/13 10:17:08;;;;;;;6.95;3.90;;;20.60;99.90;;;;;;6194551;23;20020;-88
2022/04/13 10:19:35;;;;;;;8.35;4.40;;;20.70;99.90;;;;;;6218212;23;20456;-88
2022/04/13 10:22:01;;;;;;;6.32;3.92;;;20.50;99.90;;;;;;6218561;23;20099;-87
2022/04/13 10:24:29;;;;;;;;;;;20.60;99.90;;;;;;6218991;23;20012;-92
2022/04/13 10:27:19;;;;;;;6.55;2.97;;;20.60;99.90;;;;;;6194082;23;19922;-88
2022/04/13 10:29:48;;;;;;;6.70;2.80;;;20.70;99.90;;;;;;6193235;23;20298;-88
2022/04/13 10:32:22;;;;;;;2.88;2.58;;;20.70;99.90;;;;;;6193161;23;20023;-88
2022/04/13 10:34:50;;;;;;;3.80;2.80;;;20.70;99.90;;;;;;6194451;23;20300;-88
2022/04/13 10:37:19;;;;;;;3.65;3.08;;;20.80;99.90;;;;;;6219454;23;20340;-89
2022/04/13 10:39:46;;;;;;;4.18;2.70;;;20.90;99.90;;;;;;6209342;23;20021;-89
2022/04/13 10:42:14;;;;;;;2.63;2.08;;;21.00;99.90;;;;;;6163990;23;20055;-88
2022/04/13 10:44:52;;;;;;;2.25;2.05;;;21.00;99.90;;;;;;6215344;23;20021;-87
2022/04/13 10:47:24;;;;;;;3.22;2.40;;;21.30;99.90;;;;;;6189063;23;20028;-88
2022/04/13 10:50:01;;;;;;;4.40;2.13;;;21.40;99.90;;;;;;6188280;23;20063;-88
2022/04/13 10:52:34;;;;;;;3.63;2.13;;;21.40;99.90;;;;;;6188781;23;20017;-87
2022/04/13 10:55:05;;;;;;;2.78;2.55;;;21.30;99.90;;;;;;6188634;23;20456;-87
2022/04/13 10:57:36;;;;;;;3.30;2.42;;;21.90;99.90;;;;;;6188120;23;20016;-86
2022/04/13 11:00:05;;;;;;;4.20;2.33;;;21.10;99.90;;;;;;6188767;23;20021;-86
2022/04/13 11:02:42;;;;;;;3.30;2.30;;;21.00;99.90;;;;;;6163761;23;20012;-84
2022/04/13 11:05:08;;;;;;;3.67;2.67;;;21.00;99.90;;;;;;6190417;23;20083;-84
2022/04/13 11:07:36;;;;;;;3.35;3.08;;;21.00;99.90;;;;;;6165079;23;20056;-82
2022/04/13 11:10:04;;;;;;;4.63;2.30;;;21.00;99.90;;;;;;6217138;23;20329;-82
2022/04/13 11:12:31;;;;;;;1.63;1.52;;;21.00;99.90;;;;;;6189893;23;20089;-93
2022/04/13 11:15:02;;;;;;;6.78;2.25;;;21.20;99.90;;;;;;6190377;23;20020;-81
2022/04/13 11:17:28;;;;;;;3.42;1.90;;;21.50;99.90;;;;;;6166356;23;20023;-85
2022/04/13 11:20:22;;;;;;;5.28;2.55;;;21.30;99.90;;;;;;6164777;23;20519;-84
2022/04/13 11:23:11;;;;;;;2.85;1.70;;;21.30;99.40;;;;;;6189635;23;20027;-81
2022/04/13 11:25:45;;;;;;;1.73;1.55;;;21.00;97.90;;;;;;6193010;23;20387;-84
2022/04/13 11:28:21;;;;;;;2.45;1.10;;;20.90;98.70;;;;;;6190231;23;20016;-84
2022/04/13 11:31:19;;;;;;;3.25;1.42;;;20.80;99.00;;;;;;6165481;23;20103;-84
2022/04/13 11:33:57;;;;;;;0.68;0.68;;;20.80;98.30;;;;;;6085755;23;20017;-86
2022/04/13 11:36:27;;;;;;;5.07;1.35;;;20.80;97.90;;;;;;6190256;23;20024;-87
2022/04/13 11:38:53;;;;;;;5.03;1.65;;;20.70;98.20;;;;;;6165295;23;20467;-88
2022/04/13 11:41:20;;;;;;;1.77;1.52;;;20.70;98.00;;;;;;6193837;23;20384;-88
2022/04/13 11:43:49;;;;;;;3.30;1.48;;;20.60;97.90;;;;;;6220003;23;20016;-88
2022/04/13 11:46:38;;;;;;;4.28;1.98;;;20.60;97.70;;;;;;6195673;23;20012;-87
2022/04/13 11:49:09;;;;;;;1.88;1.45;;;20.50;98.00;;;;;;6220698;23;20364;-87
2022/04/13 11:51:38;;;;;;;1.08;0.98;;;20.30;97.40;;;;;;6220139;23;20020;-86
2022/04/13 11:54:13;;;;;;;7.40;2.17;;;20.20;97.90;;;;;;6196952;23;20095;-87
2022/04/13 11:56:50;;;;;;;1.88;1.52;;;20.00;98.00;;;;;;6195702;23;20099;-87
2022/04/13 11:59:17;;;;;;;;;;;19.80;97.70;;;;;;6195164;23;20016;-86
2022/04/13 12:01:55;;;;;;;1.85;1.30;;;19.70;98.20;;;;;;6195176;23;19915;-86
2022/04/13 12:04:31;;;;;;;8.25;1.58;;;19.60;98.50;;;;;;6194259;23;20017;-85
2022/04/13 12:06:57;;;;;;;1.20;0.90;;;19.60;97.60;;;;;;6170362;23;20071;-86
2022/04/13 12:09:22;;;;;;;2.25;1.42;;;19.60;98.40;;;;;;6170867;23;20023;-85
2022/04/13 12:11:49;;;;;;;3.72;1.95;;;19.60;98.40;;;;;;6220088;23;20503;-84
2022/04/13 12:14:36;;;;;;;2.50;2.30;;;19.80;98.40;;;;;;6219686;23;20012;-83
2022/04/13 12:17:15;;;;;;;4.70;2.40;;;19.90;98.10;;;;;;6220123;23;20141;-84
2022/04/13 12:19:45;;;;;;;4.85;2.75;;;20.30;98.90;;;;;;6195068;23;20027;-86
2022/04/13 12:22:22;;;;;;;4.55;3.25;;;20.20;99.30;;;;;;6219966;23;20020;-85
2022/04/13 12:24:59;;;;;;;3.33;2.80;;;20.10;99.90;;;;;;6194468;23;20059;-86
2022/04/13 12:27:25;;;;;;;7.05;3.25;;;19.90;99.70;;;;;;6195160;23;20098;-85
2022/04/13 12:29:50;;;;;;;6.40;3.17;;;19.70;99.90;;;;;;6194751;23;20012;-85
2022/04/13 12:32:19;;;;;;;4.20;2.67;;;19.80;99.90;;;;;;6219912;23;20498;-85
2022/04/13 12:34:57;;;;;;;3.83;2.83;;;19.70;99.90;;;;;;6193946;23;20020;-85
2022/04/13 12:37:22;;;;;;;2.95;2.53;;;19.60;99.90;;;;;;6194287;23;20474;-85
2022/04/13 12:39:48;;;;;;;7.40;3.17;;;19.50;99.90;;;;;;6209285;23;20056;-85
2022/04/13 12:42:24;;;;;;;5.68;2.30;;;19.40;99.90;;;;;;6139839;23;20028;-85
2022/04/13 12:44:50;;;;;;;3.35;2.08;;;19.20;99.90;;;;;;6188822;23;20055;-86
2022/04/13 12:47:20;;;;;;;3.95;1.98;;;18.90;99.90;;;;;;6189614;23;20020;-85
2022/04/13 12:50:02;;;;;;;3.17;1.25;;;18.90;99.90;;;;;;6189301;23;20032;-86
2022/04/13 12:52:30;;;;;;;1.67;1.20;;;17.80;99.80;;;;;;6189418;23;20567;-85
2022/04/13 12:55:06;;;;;;;2.33;1.08;;;18.50;99.90;;;;;;6189131;23;20016;-86
2022/04/13 12:57:32;;;;;;;1.75;1.17;;;18.50;99.90;;;;;;6189686;23;20100;-85
2022/04/13 12:59:58;;;;;;;2.35;1.33;;;18.40;99.90;;;;;;6164123;23;20021;-85
2022/04/13 13:02:24;;;;;;;1.27;1.17;;;18.50;99.90;;;;;;6164444;23;20013;-85
2022/04/13 13:04:52;;;;;;;4.20;1.40;;;18.40;99.90;;;;;;6163964;23;20021;-85
2022/04/13 13:07:30;;;;;;;2.22;2.03;;;18.50;99.90;;;;;;6164128;23;20012;-85
2022/04/13 13:09:56;;;;;;;3.80;1.40;;;18.60;99.90;;;;;;6188962;23;20016;-85
2022/04/13 13:12:22;;;;;;;7.25;1.63;;;17.90;99.90;;;;;;6189214;23;20345;-85
2022/04/13 13:14:51;;;;;;;2.25;1.40;;;18.70;99.90;;;;;;6138892;23;20023;-85
2022/04/13 13:17:31;;;;;;;3.97;1.90;;;18.90;99.90;;;;;;6164304;23;20075;-85
2022/04/13 13:20:15;;;;;;;2.97;1.20;;;19.00;99.90;;;;;;6164192;23;20495;-85
2022/04/13 13:22:51;;;;;;;6.65;1.80;;;18.90;99.90;;;;;;6189137;23;20017;-85
2022/04/13 13:25:20;;;;;;;5.85;1.70;;;18.90;99.90;;;;;;6163951;23;20020;-85
2022/04/13 13:27:58;;;;;;;3.00;1.30;;;18.80;99.90;;;;;;6164037;23;20020;-85
2022/04/13 13:30:24;;;;;;;1.80;1.60;;;18.80;99.90;;;;;;6163551;23;20028;-85
2022/04/13 13:32:56;;;;;;;1.42;0.90;;;18.60;99.90;;;;;;6164125;23;20017;-86
2022/04/13 13:35:27;;;;;;;1.52;1.10;;;18.50;99.90;;;;;;6164404;23;20020;-85
2022/04/13 13:37:56;;;;;;;1.02;0.90;;;18.40;99.90;;;;;;6164152;23;20016;-85
2022/04/13 13:40:32;;;;;;;4.57;1.60;;;18.20;99.90;;;;;;6181077;23;20016;-84
2022/04/13 13:42:59;;;;;;;2.28;1.60;;;18.10;99.90;;;;;;6193066;23;20023;-84